createdAt,value
2022-09-23T00:01:24.816Z,4.50
2022-09-23T00:03:52.676Z,4.40
2022-09-23T00:06:22.584Z,4.40
2022-09-23T00:08:51.343Z,4.40
2022-09-23T00:11:21.680Z,4.30
2022-09-23T00:13:52.725Z,4.40
2022-09-23T00:16:23.759Z,4.50
2022-09-23T00:18:51.767Z,4.50
2022-09-23T00:21:20.665Z,4.40
2022-09-23T00:23:48.981Z,4.40
2022-09-23T00:26:18.922Z,4.30
2022-09-23T00:28:47.237Z,4.30
2022-09-23T00:31:18.194Z,4.30
2022-09-23T00:33:47.587Z,4.40
2022-09-23T00:36:16.983Z,4.40
2022-09-23T00:38:45.781Z,4.40
2022-09-23T00:41:16.014Z,4.40
2022-09-23T00:43:46.231Z,4.30
2022-09-23T00:46:18.583Z,4.30
2022-09-23T00:48:53.171Z,4.40
2022-09-23T00:51:23.587Z,4.30
2022-09-23T00:53:53.397Z,4.30
2022-09-23T00:56:23.867Z,4.30
2022-09-23T00:58:52.588Z,4.30
2022-09-23T01:01:21.712Z,4.10
2022-09-23T01:03:52.306Z,4.10
2022-09-23T01:06:20.425Z,4.10
2022-09-23T01:08:49.169Z,4.10
2022-09-23T01:11:31.290Z,4.20
2022-09-23T01:14:08.398Z,4.20
2022-09-23T01:16:42.315Z,4.20
2022-09-23T01:19:33.309Z,4.10
2022-09-23T01:22:05.787Z,4.10
2022-09-23T01:24:51.759Z,4.20
2022-09-23T01:27:41.103Z,4.10
2022-09-23T01:30:16.612Z,4.10
2022-09-23T01:33:11.826Z,3.90
2022-09-23T01:36:03.883Z,3.90
2022-09-23T01:38:40.648Z,4.00
2022-09-23T01:41:18.341Z,4.10
2022-09-23T01:43:54.708Z,4.10
2022-09-23T01:46:28.830Z,4.00
2022-09-23T01:49:03.873Z,4.00
2022-09-23T01:51:37.222Z,3.90
2022-09-23T01:54:08.215Z,3.70
2022-09-23T01:56:41.181Z,3.60
2022-09-23T01:59:15.312Z,3.50
2022-09-23T02:01:48.704Z,3.60
2022-09-23T02:04:23.319Z,3.50
2022-09-23T02:06:57.997Z,3.40
2022-09-23T02:09:32.358Z,3.30
2022-09-23T02:12:05.714Z,3.20
2022-09-23T02:14:39.979Z,3.20
2022-09-23T02:17:12.992Z,3.30
2022-09-23T02:19:46.404Z,3.30
2022-09-23T02:22:16.117Z,3.40
2022-09-23T02:24:45.060Z,3.40
2022-09-23T02:27:21.132Z,3.40
2022-09-23T02:29:56.658Z,3.40
2022-09-23T02:32:31.616Z,3.40
2022-09-23T02:35:10.504Z,3.40
2022-09-23T02:37:47.542Z,3.30
2022-09-23T02:40:23.463Z,3.20
2022-09-23T02:42:58.960Z,3.10
2022-09-23T02:45:27.266Z,3.10
2022-09-23T02:48:00.614Z,3.10
2022-09-23T02:50:30.878Z,3.20
2022-09-23T02:53:00.854Z,3.20
2022-09-23T02:55:31.275Z,3.20
2022-09-23T02:58:01.410Z,3.20
2022-09-23T03:00:40.426Z,3.20
2022-09-23T03:03:23.564Z,3.10
2022-09-23T03:05:57.338Z,3.10
2022-09-23T03:08:37.208Z,3.10
2022-09-23T03:11:08.560Z,3.10
2022-09-23T03:13:48.585Z,3.10
2022-09-23T03:16:27.758Z,3.10
2022-09-23T03:19:00.303Z,3.10
2022-09-23T03:21:35.265Z,3.10
2022-09-23T03:24:08.268Z,3.20
2022-09-23T03:26:39.643Z,3.20
2022-09-23T03:29:11.427Z,3.10
2022-09-23T03:31:42.520Z,3.10
2022-09-23T03:34:16.584Z,3.20
2022-09-23T03:36:51.935Z,3.20
2022-09-23T03:39:29.244Z,3.20
2022-09-23T03:41:59.999Z,3.20
2022-09-23T03:44:29.024Z,3.20
2022-09-23T03:47:00.128Z,3.10
2022-09-23T03:49:32.860Z,3.10
2022-09-23T03:52:03.184Z,3.10
2022-09-23T03:54:31.267Z,3.10
2022-09-23T03:57:01.174Z,3.00
2022-09-23T03:59:30.290Z,3.00
2022-09-23T04:01:59.497Z,3.10
2022-09-23T04:04:28.249Z,3.10
2022-09-23T04:06:56.366Z,3.10
2022-09-23T04:09:26.976Z,3.00
2022-09-23T04:11:55.121Z,3.00
2022-09-23T04:14:23.660Z,3.10
2022-09-23T04:16:51.971Z,3.10
2022-09-23T04:19:19.906Z,3.10
2022-09-23T04:21:48.320Z,3.10
2022-09-23T04:24:17.838Z,3.10
2022-09-23T04:26:47.018Z,3.00
2022-09-23T04:29:14.854Z,3.00
2022-09-23T04:31:42.704Z,3.00
2022-09-23T04:34:10.714Z,3.00
2022-09-23T04:36:38.554Z,2.90
2022-09-23T04:39:06.633Z,2.90
2022-09-23T04:41:35.129Z,2.90
2022-09-23T04:44:05.047Z,2.80
2022-09-23T04:46:32.985Z,2.90
2022-09-23T04:49:00.913Z,2.90
2022-09-23T04:51:29.476Z,2.90
2022-09-23T04:53:57.647Z,2.90
2022-09-23T04:56:27.262Z,2.80
2022-09-23T04:58:57.180Z,2.70
2022-09-23T05:01:28.451Z,2.70
2022-09-23T05:03:58.219Z,2.80
2022-09-23T05:06:26.513Z,2.80
2022-09-23T05:08:56.092Z,2.70
2022-09-23T05:11:24.325Z,2.80
2022-09-23T05:13:53.949Z,2.90
2022-09-23T05:16:23.645Z,2.80
2022-09-23T05:18:53.909Z,2.80
2022-09-23T05:21:24.473Z,2.90
2022-09-23T05:23:55.140Z,2.90
2022-09-23T05:26:25.245Z,2.80
2022-09-23T05:28:53.793Z,2.80
2022-09-23T05:31:24.118Z,2.80
2022-09-23T05:33:55.761Z,2.90
2022-09-23T05:36:24.387Z,3.10
2022-09-23T05:38:52.618Z,3.30
2022-09-23T05:41:22.841Z,3.50
2022-09-23T05:43:51.489Z,3.70
2022-09-23T05:46:21.102Z,4.10
2022-09-23T05:48:49.041Z,4.40
2022-09-23T05:51:20.116Z,4.70
2022-09-23T05:53:49.714Z,5.10
2022-09-23T05:56:19.597Z,5.90
2022-09-23T05:58:49.298Z,6.60
2022-09-23T06:01:21.992Z,7.30
2022-09-23T06:03:50.502Z,7.90
2022-09-23T06:06:22.548Z,8.30
2022-09-23T06:08:50.376Z,8.20
2022-09-23T06:11:19.403Z,8.40
2022-09-23T06:13:47.191Z,8.50
2022-09-23T06:16:16.780Z,9.00
2022-09-23T06:18:46.264Z,9.30
2022-09-23T06:21:15.924Z,9.70
2022-09-23T06:23:46.244Z,10.10
2022-09-23T06:26:15.622Z,10.40
2022-09-23T06:28:44.892Z,10.20
2022-09-23T06:31:15.275Z,9.90
2022-09-23T06:33:44.828Z,9.40
2022-09-23T06:36:23.456Z,9.00
2022-09-23T06:38:53.774Z,9.10
2022-09-23T06:41:21.628Z,9.20
2022-09-23T06:43:49.504Z,9.30
2022-09-23T06:46:17.948Z,9.40
2022-09-23T06:48:46.443Z,9.70
2022-09-23T06:51:19.186Z,10.00
2022-09-23T06:53:48.481Z,10.40
2022-09-23T06:56:19.872Z,11.70
2022-09-23T06:58:48.056Z,12.80
2022-09-23T07:01:19.057Z,13.50
2022-09-23T07:03:48.436Z,14.40
2022-09-23T07:06:17.092Z,15.50
2022-09-23T07:08:46.992Z,16.40
2022-09-23T07:11:19.327Z,17.20
2022-09-23T07:13:47.198Z,17.40
2022-09-23T07:16:15.326Z,17.90
2022-09-23T07:18:43.199Z,18.30
2022-09-23T07:21:14.941Z,19.40
2022-09-23T07:23:43.149Z,20.40
2022-09-23T07:26:11.554Z,21.10
2022-09-23T07:28:40.798Z,21.80
2022-09-23T07:31:15.386Z,21.30
2022-09-23T07:33:44.609Z,22.00
2022-09-23T07:36:14.878Z,22.50
2022-09-23T07:38:45.521Z,22.60
2022-09-23T07:41:15.712Z,23.20
2022-09-23T07:43:45.457Z,23.50
2022-09-23T07:46:16.810Z,23.30
2022-09-23T07:48:45.654Z,23.00
2022-09-23T07:51:22.545Z,24.10
2022-09-23T07:53:51.936Z,24.10
2022-09-23T07:56:21.953Z,24.10
2022-09-23T07:59:00.082Z,23.70
2022-09-23T08:01:29.619Z,23.60
2022-09-23T08:03:57.959Z,23.70
2022-09-23T08:06:25.890Z,23.20
2022-09-23T08:08:54.146Z,24.60
2022-09-23T08:11:21.984Z,25.60
2022-09-23T08:13:51.334Z,26.70
2022-09-23T08:16:19.220Z,27.30
2022-09-23T08:18:47.694Z,27.40
2022-09-23T08:21:20.357Z,28.20
2022-09-23T08:23:48.645Z,28.30
2022-09-23T08:26:21.581Z,29.70
2022-09-23T08:28:54.606Z,29.50
2022-09-23T08:31:23.903Z,30.60
2022-09-23T08:33:56.040Z,31.40
2022-09-23T08:36:24.381Z,32.30
2022-09-23T08:38:52.586Z,31.30
2022-09-23T08:41:28.274Z,31.50
2022-09-23T08:44:02.327Z,32.40
2022-09-23T08:46:36.056Z,32.60
2022-09-23T08:49:06.525Z,32.20
2022-09-23T08:51:40.821Z,32.80
2022-09-23T08:54:11.096Z,30.90
2022-09-23T08:56:39.727Z,31.20
2022-09-23T08:59:14.737Z,31.50
2022-09-23T09:01:45.734Z,30.30
2022-09-23T09:04:18.581Z,29.60
2022-09-23T09:06:54.089Z,30.30
2022-09-23T09:09:29.517Z,30.30
2022-09-23T09:12:04.040Z,29.70
2022-09-23T09:14:38.861Z,29.00
2022-09-23T09:17:10.486Z,28.30
2022-09-23T09:19:53.692Z,28.70
2022-09-23T09:22:26.015Z,29.60
2022-09-23T09:24:59.853Z,30.30
2022-09-23T09:27:27.714Z,30.60
2022-09-23T09:29:59.057Z,31.40
2022-09-23T09:32:37.810Z,31.20
2022-09-23T09:35:16.905Z,31.40
2022-09-23T09:37:48.386Z,32.70
2022-09-23T09:40:17.925Z,32.30
2022-09-23T09:42:48.628Z,31.60
2022-09-23T09:45:26.269Z,31.70
2022-09-23T09:48:03.603Z,32.10
2022-09-23T09:50:47.213Z,30.80
2022-09-23T09:53:23.987Z,31.10
2022-09-23T09:56:05.569Z,31.20
2022-09-23T09:58:41.041Z,31.40
2022-09-23T10:01:18.316Z,31.50
2022-09-23T10:03:46.783Z,31.90
2022-09-23T10:06:20.841Z,33.30
2022-09-23T10:09:07.629Z,33.00
2022-09-23T10:11:36.232Z,32.80
2022-09-23T10:14:13.386Z,32.70
2022-09-23T10:16:42.627Z,31.10
2022-09-23T10:19:19.340Z,31.30
2022-09-23T10:21:52.643Z,31.10
2022-09-23T10:24:26.837Z,31.20
2022-09-23T10:26:58.606Z,30.30
2022-09-23T10:29:32.179Z,30.80
2022-09-23T10:32:30.122Z,32.30
2022-09-23T10:35:04.676Z,31.60
2022-09-23T10:37:36.901Z,30.60
2022-09-23T10:40:36.147Z,30.70
2022-09-23T10:43:46.663Z,30.50
2022-09-23T10:46:37.815Z,31.60
2022-09-23T10:49:51.026Z,31.90
2022-09-23T10:52:41.902Z,32.00
2022-09-23T10:55:23.759Z,31.00
2022-09-23T10:58:08.637Z,29.40
2022-09-23T11:00:45.023Z,29.00
2022-09-23T11:03:45.909Z,29.00
2022-09-23T11:06:25.003Z,29.10
2022-09-23T11:09:10.432Z,28.20
2022-09-23T11:11:49.564Z,28.80
2022-09-23T11:14:45.508Z,29.90
2022-09-23T11:17:37.127Z,29.80
2022-09-23T11:20:28.356Z,29.20
2022-09-23T11:23:23.622Z,29.20
2022-09-23T11:25:59.293Z,28.60
2022-09-23T11:28:42.382Z,28.80
2022-09-23T11:31:23.550Z,28.70
2022-09-23T11:34:02.551Z,28.60
2022-09-23T11:36:36.533Z,29.30
2022-09-23T11:39:12.826Z,29.40
2022-09-23T11:41:43.794Z,28.90
2022-09-23T11:44:19.880Z,28.70
2022-09-23T11:46:53.572Z,27.80
2022-09-23T11:49:27.653Z,26.80
2022-09-23T11:52:03.899Z,26.30
2022-09-23T11:54:40.620Z,25.00
2022-09-23T11:57:14.119Z,24.20
2022-09-23T12:02:30.294Z,22.80
2022-09-23T12:05:03.507Z,22.70
2022-09-23T12:07:39.582Z,22.50
2022-09-23T12:10:11.781Z,22.10
2022-09-23T12:12:47.888Z,21.90
2022-09-23T12:15:27.954Z,22.30
2022-09-23T12:18:23.260Z,22.20
2022-09-23T12:21:45.712Z,21.80
2022-09-23T12:24:41.884Z,22.30
2022-09-23T12:27:24.126Z,22.20
2022-09-23T12:29:56.499Z,22.60
2022-09-23T12:32:25.041Z,22.70
2022-09-23T12:34:55.132Z,23.10
2022-09-23T12:37:28.877Z,23.10
2022-09-23T12:40:03.162Z,22.90
2022-09-23T12:42:32.480Z,22.50
2022-09-23T12:45:34.641Z,22.20
2022-09-23T12:48:04.292Z,21.50
2022-09-23T12:50:52.955Z,20.90
2022-09-23T12:54:08.781Z,21.50
2022-09-23T12:57:02.087Z,21.70
2022-09-23T12:59:55.601Z,21.80
2022-09-23T13:02:30.914Z,21.40
2022-09-23T13:05:28.052Z,21.30
2022-09-23T13:08:02.954Z,21.40
2022-09-23T13:10:33.702Z,21.40
2022-09-23T13:13:03.209Z,21.50
2022-09-23T13:15:35.532Z,21.80
2022-09-23T13:18:25.987Z,21.60
2022-09-23T13:20:56.841Z,21.60
2022-09-23T13:23:25.931Z,21.50
2022-09-23T13:25:56.841Z,21.40
2022-09-23T13:28:34.589Z,21.70
2022-09-23T13:31:07.388Z,21.70
2022-09-23T13:33:41.890Z,21.80
2022-09-23T13:36:14.794Z,21.70
2022-09-23T13:38:43.465Z,21.70
2022-09-23T13:41:16.195Z,21.40
2022-09-23T13:43:46.230Z,21.20
2022-09-23T13:46:18.884Z,21.20
2022-09-23T13:48:48.904Z,21.30
2022-09-23T13:51:22.820Z,21.50
2022-09-23T13:53:55.075Z,21.30
2022-09-23T13:56:24.880Z,21.00
2022-09-23T13:58:53.267Z,21.00
2022-09-23T14:01:32.566Z,20.90
2022-09-23T14:04:00.839Z,20.50
2022-09-23T14:06:31.040Z,20.50
2022-09-23T14:09:01.997Z,20.70
2022-09-23T14:11:33.043Z,21.00
2022-09-23T14:14:07.424Z,20.60
2022-09-23T14:16:41.026Z,20.80
2022-09-23T14:19:12.371Z,21.00
2022-09-23T14:21:41.284Z,21.20
2022-09-23T14:24:20.875Z,20.70
2022-09-23T14:26:51.221Z,21.00
2022-09-23T14:29:21.792Z,21.10
2022-09-23T14:32:02.967Z,21.00
2022-09-23T14:34:45.724Z,21.00
2022-09-23T14:37:49.759Z,21.10
2022-09-23T14:40:18.772Z,20.80
2022-09-23T14:42:49.846Z,20.80
2022-09-23T14:45:20.727Z,20.60
2022-09-23T14:47:52.599Z,20.50
2022-09-23T14:50:39.581Z,20.50
2022-09-23T14:53:31.829Z,20.50
2022-09-23T14:56:19.848Z,20.50
2022-09-23T14:58:55.318Z,20.40
2022-09-23T15:01:35.444Z,20.30
2022-09-23T15:04:16.852Z,20.00
2022-09-23T15:06:50.733Z,20.20
2022-09-23T15:09:23.571Z,20.20
2022-09-23T15:11:57.886Z,20.20
2022-09-23T15:14:40.665Z,20.30
2022-09-23T15:17:17.941Z,20.10
2022-09-23T15:19:52.457Z,20.10
2022-09-23T15:22:20.376Z,20.00
2022-09-23T15:24:48.277Z,20.10
2022-09-23T15:27:30.749Z,20.10
2022-09-23T15:30:14.919Z,20.00
2022-09-23T15:32:43.295Z,19.80
2022-09-23T15:35:16.291Z,19.70
2022-09-23T15:37:44.619Z,19.50
2022-09-23T15:40:20.708Z,19.50
2022-09-23T15:42:51.439Z,19.30
2022-09-23T15:45:21.936Z,19.30
2022-09-23T15:47:51.014Z,19.20
2022-09-23T15:50:20.556Z,19.10
2022-09-23T15:52:48.416Z,19.10
2022-09-23T15:55:19.509Z,19.00
2022-09-23T15:57:47.496Z,18.90
2022-09-23T16:00:16.698Z,18.80
2022-09-23T16:02:46.669Z,18.80
2022-09-23T16:05:22.591Z,18.70
2022-09-23T16:07:52.215Z,18.70
2022-09-23T16:10:22.743Z,18.70
2022-09-23T16:12:52.257Z,18.60
2022-09-23T16:15:22.407Z,18.40
2022-09-23T16:17:50.316Z,18.10
2022-09-23T16:20:19.830Z,17.90
2022-09-23T16:22:53.868Z,17.80
2022-09-23T16:25:22.582Z,17.70
2022-09-23T16:27:50.418Z,17.50
2022-09-23T16:30:18.309Z,17.40
2022-09-23T16:32:46.128Z,17.30
2022-09-23T16:35:15.059Z,17.20
2022-09-23T16:37:46.950Z,17.10
2022-09-23T16:40:16.485Z,17.00
2022-09-23T16:42:45.183Z,17.00
2022-09-23T16:45:13.682Z,16.80
2022-09-23T16:47:45.193Z,16.60
2022-09-23T16:50:13.872Z,16.50
2022-09-23T16:52:41.829Z,16.40
2022-09-23T16:55:12.965Z,16.40
2022-09-23T16:57:41.778Z,16.20
2022-09-23T17:00:31.238Z,16.10
2022-09-23T17:03:28.305Z,15.90
2022-09-23T17:05:56.178Z,15.80
2022-09-23T17:08:24.157Z,15.60
2022-09-23T17:10:59.086Z,15.50
2022-09-23T17:13:27.739Z,15.50
2022-09-23T17:15:55.796Z,15.40
2022-09-23T17:18:23.738Z,15.30
2022-09-23T17:20:59.487Z,15.20
2022-09-23T17:23:28.305Z,15.00
2022-09-23T17:25:57.470Z,15.00
2022-09-23T17:28:25.436Z,15.00
2022-09-23T17:30:58.574Z,15.00
2022-09-23T17:33:26.592Z,14.90
2022-09-23T17:35:54.706Z,15.00
2022-09-23T17:38:27.976Z,15.00
2022-09-23T17:41:01.046Z,14.90
2022-09-23T17:43:30.167Z,14.80
2022-09-23T17:46:06.531Z,14.50
2022-09-23T17:48:35.897Z,14.40
2022-09-23T17:51:05.862Z,14.30
2022-09-23T17:53:35.990Z,14.30
2022-09-23T17:56:07.089Z,14.20
2022-09-23T17:58:36.795Z,14.10
2022-09-23T18:01:05.525Z,14.20
2022-09-23T18:03:33.578Z,14.10
2022-09-23T18:06:09.909Z,14.10
2022-09-23T18:08:37.845Z,14.00
2022-09-23T18:11:14.690Z,13.80
2022-09-23T18:13:42.637Z,13.70
2022-09-23T18:16:10.535Z,13.60
2022-09-23T18:18:38.429Z,13.60
2022-09-23T18:21:07.548Z,13.60
2022-09-23T18:23:36.794Z,13.60
2022-09-23T18:26:05.518Z,13.40
2022-09-23T18:28:35.129Z,13.30
2022-09-23T18:31:03.018Z,13.30
2022-09-23T18:33:30.849Z,13.20
2022-09-23T18:36:01.087Z,13.20
2022-09-23T18:38:28.929Z,13.20
2022-09-23T18:40:58.650Z,13.10
2022-09-23T18:43:37.408Z,13.10
2022-09-23T18:46:12.710Z,13.00
2022-09-23T18:48:58.580Z,12.90
2022-09-23T18:51:29.013Z,13.00
2022-09-23T18:53:58.530Z,13.10
2022-09-23T18:56:29.639Z,13.10
2022-09-23T18:58:57.768Z,12.90
2022-09-23T19:01:27.264Z,12.80
2022-09-23T19:03:56.045Z,12.60
2022-09-23T19:06:25.200Z,12.50
2022-09-23T19:08:54.508Z,12.40
2022-09-23T19:11:23.775Z,12.40
2022-09-23T19:13:55.173Z,12.40
2022-09-23T19:16:24.048Z,12.50
2022-09-23T19:18:54.333Z,12.50
2022-09-23T19:21:23.546Z,12.30
2022-09-23T19:23:53.177Z,12.10
2022-09-23T19:26:23.133Z,12.00
2022-09-23T19:28:52.658Z,12.00
2022-09-23T19:31:23.194Z,11.90
2022-09-23T19:33:56.958Z,11.80
2022-09-23T19:36:31.407Z,11.80
2022-09-23T19:39:02.864Z,11.70
2022-09-23T19:41:33.334Z,11.60
2022-09-23T19:44:03.524Z,11.50
2022-09-23T19:46:32.325Z,11.40
2022-09-23T19:49:02.381Z,11.40
2022-09-23T19:51:30.676Z,11.30
2022-09-23T19:53:58.514Z,11.20
2022-09-23T19:56:26.503Z,11.20
2022-09-23T19:58:58.139Z,11.10
2022-09-23T20:01:27.223Z,11.10
2022-09-23T20:03:55.212Z,11.00
2022-09-23T20:06:24.561Z,10.70
2022-09-23T20:08:52.715Z,10.70
2022-09-23T20:11:26.194Z,10.60
2022-09-23T20:14:00.899Z,10.50
2022-09-23T20:16:31.977Z,10.50
2022-09-23T20:19:00.878Z,10.50
2022-09-23T20:21:30.909Z,10.40
2022-09-23T20:23:59.160Z,10.40
2022-09-23T20:26:44.734Z,10.40
2022-09-23T20:29:12.765Z,10.30
2022-09-23T20:31:41.492Z,10.20
2022-09-23T20:34:10.467Z,10.20
2022-09-23T20:36:41.365Z,10.30
2022-09-23T20:39:10.571Z,10.30
2022-09-23T20:41:39.360Z,10.30
2022-09-23T20:44:10.397Z,10.20
2022-09-23T20:46:38.722Z,10.10
2022-09-23T20:49:08.716Z,9.90
2022-09-23T20:51:36.846Z,10.00
2022-09-23T20:54:07.262Z,10.10
2022-09-23T20:56:35.190Z,10.10
2022-09-23T20:59:04.267Z,10.20
2022-09-23T21:01:34.238Z,10.30
2022-09-23T21:04:04.790Z,10.40
2022-09-23T21:06:34.502Z,10.40
2022-09-23T21:09:02.382Z,10.40
2022-09-23T21:11:32.198Z,10.40
2022-09-23T21:14:01.405Z,10.30
2022-09-23T21:16:29.973Z,10.20
2022-09-23T21:18:58.652Z,10.30
2022-09-23T21:21:26.948Z,10.30
2022-09-23T21:23:55.344Z,10.40
2022-09-23T21:26:27.288Z,10.40
2022-09-23T21:28:58.697Z,10.40
2022-09-23T21:31:28.521Z,10.40
2022-09-23T21:33:57.088Z,10.40
2022-09-23T21:36:26.293Z,10.30
2022-09-23T21:38:55.451Z,10.30
2022-09-23T21:41:23.670Z,10.40
2022-09-23T21:43:51.872Z,10.40
2022-09-23T21:46:22.269Z,10.20
2022-09-23T21:48:53.683Z,10.20
2022-09-23T21:51:23.166Z,10.20
2022-09-23T21:53:51.907Z,10.30
2022-09-23T21:56:21.463Z,10.20
2022-09-23T21:58:49.642Z,10.10
2022-09-23T22:01:19.155Z,10.10
2022-09-23T22:03:52.495Z,10.10
2022-09-23T22:06:22.465Z,10.20
2022-09-23T22:08:52.166Z,10.30
2022-09-23T22:11:41.752Z,10.20
2022-09-23T22:14:12.489Z,10.10
2022-09-23T22:16:41.576Z,10.10
2022-09-23T22:19:13.708Z,10.00
2022-09-23T22:21:43.279Z,10.00
2022-09-23T22:24:12.870Z,10.00
2022-09-23T22:26:42.624Z,10.00
2022-09-23T22:29:30.414Z,10.00
2022-09-23T22:32:16.645Z,10.00
2022-09-23T22:34:51.482Z,9.90
2022-09-23T22:37:23.139Z,9.80
2022-09-23T22:39:50.947Z,9.90
2022-09-23T22:42:21.147Z,9.90
2022-09-23T22:44:49.309Z,9.90
2022-09-23T22:47:18.545Z,9.90
2022-09-23T22:49:48.808Z,9.90
2022-09-23T22:52:21.087Z,9.90
2022-09-23T22:54:49.115Z,10.00
2022-09-23T22:57:16.993Z,10.00
2022-09-23T22:59:47.852Z,9.90
2022-09-23T23:02:16.491Z,9.90
2022-09-23T23:04:45.349Z,9.90
2022-09-23T23:07:15.932Z,9.90
2022-09-23T23:09:43.763Z,9.90
2022-09-23T23:12:11.545Z,9.90
2022-09-23T23:14:40.730Z,10.00
2022-09-23T23:17:08.530Z,10.10
2022-09-23T23:19:37.070Z,10.00
2022-09-23T23:22:05.189Z,10.10
2022-09-23T23:24:34.362Z,10.10
2022-09-23T23:27:02.434Z,10.10
2022-09-23T23:29:30.297Z,10.20
2022-09-23T23:31:58.158Z,10.20
2022-09-23T23:34:26.020Z,10.10
2022-09-23T23:36:55.746Z,10.00
2022-09-23T23:39:24.882Z,10.00
2022-09-23T23:41:56.080Z,10.00
2022-09-23T23:44:24.969Z,10.00
2022-09-23T23:46:53.249Z,10.00
2022-09-23T23:49:21.422Z,10.00
2022-09-23T23:51:49.278Z,10.00
2022-09-23T23:54:17.492Z,10.00
2022-09-23T23:56:45.374Z,10.00
2022-09-23T23:59:14.578Z,10.00
